JBU1078 KBOS-EGPH
Flight info
| Callsign | JBU1078 |
|---|---|
| Flight time | N/A |
| Altitude | 35000 |
| Route | LBSTA8 LBSTA DCT EBONY N567B TUDEP/M079F370 DCT 52N050W 54N040W 56N030W 56N020W DCT PIKIL DCT SOVED/N0444F370 DCT MIMKU DCT DONIB DCT MAC/N0404F250 N562 TRN DCT TLA |
| Aircraft | A21N/M-SDE2E3FGHIRWXY/LB1 |
Departure
| Time | N/A |
|---|---|
| Airport | Boston Logan International Airport (KBOS) |
Arrival
| Time | 2026-04-23 17:30 |
|---|---|
| Airport | Edinburgh Airport (EGPH) |
| Time | Latitude | Longitude | Altitude | Speed | Heading |
|---|---|---|---|---|---|
| 2026-04-23 17:09 | 55.40821 | -5.58124 | 22615 ft | 423 kts | 121° |
| 2026-04-23 17:10 | 55.39399 | -5.53744 | 21862 ft | 416 kts | 120° |
| 2026-04-23 17:10 | 55.37971 | -5.49348 | 21147 ft | 409 kts | 120° |
| 2026-04-23 17:10 | 55.36576 | -5.45030 | 20466 ft | 403 kts | 120° |
| 2026-04-23 17:10 | 55.35202 | -5.40778 | 19836 ft | 399 kts | 120° |
| 2026-04-23 17:11 | 55.33839 | -5.36552 | 19216 ft | 396 kts | 120° |
| 2026-04-23 17:11 | 55.32479 | -5.32349 | 18680 ft | 395 kts | 120° |
| 2026-04-23 17:11 | 55.31124 | -5.28174 | 18068 ft | 392 kts | 120° |
| 2026-04-23 17:11 | 55.29776 | -5.24027 | 17445 ft | 391 kts | 120° |
| 2026-04-23 17:12 | 55.28434 | -5.19899 | 16833 ft | 390 kts | 120° |
| 2026-04-23 17:12 | 55.27090 | -5.15769 | 16242 ft | 388 kts | 120° |
| 2026-04-23 17:12 | 55.25753 | -5.11670 | 15660 ft | 387 kts | 120° |
| 2026-04-23 17:12 | 55.24419 | -5.07586 | 15073 ft | 386 kts | 120° |
| 2026-04-23 17:13 | 55.23083 | -5.03497 | 14486 ft | 386 kts | 120° |
| 2026-04-23 17:13 | 55.21749 | -4.99414 | 13852 ft | 385 kts | 121° |
| 2026-04-23 17:13 | 55.20421 | -4.95354 | 13236 ft | 384 kts | 120° |
| 2026-04-23 17:13 | 55.19381 | -4.91067 | 12626 ft | 384 kts | 106° |
| 2026-04-23 17:14 | 55.19138 | -4.86433 | 12140 ft | 381 kts | 87° |
| 2026-04-23 17:14 | 55.19738 | -4.82026 | 11889 ft | 366 kts | 70° |
| 2026-04-23 17:14 | 55.20722 | -4.78041 | 11735 ft | 348 kts | 67° |
| 2026-04-23 17:14 | 55.21640 | -4.74303 | 11612 ft | 330 kts | 69° |
| 2026-04-23 17:15 | 55.22487 | -4.70667 | 11488 ft | 314 kts | 67° |
| 2026-04-23 17:15 | 55.23690 | -4.67584 | 11349 ft | 302 kts | 48° |
| 2026-04-23 17:15 | 55.25265 | -4.65060 | 11233 ft | 305 kts | 41° |
| 2026-04-23 17:15 | 55.26861 | -4.62686 | 11110 ft | 304 kts | 41° |
| 2026-04-23 17:16 | 55.28469 | -4.60272 | 10992 ft | 304 kts | 41° |
| 2026-04-23 17:16 | 55.30063 | -4.57849 | 10869 ft | 304 kts | 42° |
| 2026-04-23 17:16 | 55.31654 | -4.55401 | 10749 ft | 303 kts | 42° |
| 2026-04-23 17:16 | 55.33238 | -4.52958 | 10631 ft | 303 kts | 42° |
| 2026-04-23 17:17 | 55.34816 | -4.50513 | 10514 ft | 302 kts | 43° |
| 2026-04-23 17:17 | 55.36397 | -4.48057 | 10399 ft | 302 kts | 43° |
| 2026-04-23 17:17 | 55.37439 | -4.46435 | 10324 ft | 302 kts | 43° |
| 2026-04-23 17:17 | 55.39537 | -4.43171 | 10138 ft | 301 kts | 42° |
| 2026-04-23 17:18 | 55.42636 | -4.38335 | 9881 ft | 300 kts | 42° |
| 2026-04-23 17:18 | 55.44185 | -4.35903 | 9738 ft | 299 kts | 42° |
| 2026-04-23 17:18 | 55.45736 | -4.33469 | 9608 ft | 297 kts | 42° |
| 2026-04-23 17:19 | 55.47280 | -4.31051 | 9477 ft | 296 kts | 42° |
| 2026-04-23 17:19 | 55.48817 | -4.28635 | 9344 ft | 296 kts | 42° |
| 2026-04-23 17:19 | 55.50353 | -4.26219 | 9207 ft | 295 kts | 42° |
| 2026-04-23 17:19 | 55.51879 | -4.23820 | 9067 ft | 294 kts | 42° |
| 2026-04-23 17:20 | 55.53409 | -4.21414 | 8883 ft | 294 kts | 42° |
| 2026-04-23 17:20 | 55.56442 | -4.16624 | 8446 ft | 291 kts | 42° |
| 2026-04-23 17:21 | 55.59448 | -4.11874 | 7851 ft | 288 kts | 42° |
| 2026-04-23 17:21 | 55.60935 | -4.09524 | 7543 ft | 286 kts | 42° |
| 2026-04-23 17:21 | 55.63889 | -4.04849 | 6909 ft | 284 kts | 42° |
| 2026-04-23 17:22 | 55.65356 | -4.02520 | 6581 ft | 283 kts | 42° |
| 2026-04-23 17:22 | 55.68247 | -3.97923 | 5920 ft | 280 kts | 43° |
| 2026-04-23 17:23 | 55.71125 | -3.93331 | 5264 ft | 277 kts | 43° |
| 2026-04-23 17:23 | 55.72550 | -3.91051 | 4925 ft | 278 kts | 43° |
| 2026-04-23 17:23 | 55.75405 | -3.86482 | 4259 ft | 272 kts | 43° |
| 2026-04-23 17:24 | 55.76801 | -3.84246 | 3986 ft | 271 kts | 43° |
| 2026-04-23 17:24 | 55.78164 | -3.82065 | 3912 ft | 256 kts | 43° |
| 2026-04-23 17:24 | 55.80652 | -3.78067 | 3918 ft | 229 kts | 44° |
| 2026-04-23 17:25 | 55.82602 | -3.73672 | 3967 ft | 226 kts | 64° |
| 2026-04-23 17:25 | 55.83412 | -3.71252 | 3981 ft | 228 kts | 62° |
| 2026-04-23 17:26 | 55.85046 | -3.66450 | 3728 ft | 225 kts | 60° |
| 2026-04-23 17:26 | 55.86604 | -3.61882 | 3163 ft | 203 kts | 60° |
| 2026-04-23 17:27 | 55.87982 | -3.57841 | 2728 ft | 179 kts | 61° |
| 2026-04-23 17:27 | 55.88606 | -3.56013 | 2492 ft | 168 kts | 62° |
| 2026-04-23 17:27 | 55.89203 | -3.54262 | 2246 ft | 163 kts | 61° |
| 2026-04-23 17:27 | 55.89781 | -3.52565 | 1979 ft | 157 kts | 60° |
| 2026-04-23 17:28 | 55.90336 | -3.50932 | 1742 ft | 150 kts | 61° |
| 2026-04-23 17:28 | 55.90847 | -3.49434 | 1509 ft | 133 kts | 61° |
| 2026-04-23 17:28 | 55.91326 | -3.48025 | 1351 ft | 134 kts | 61° |
| 2026-04-23 17:28 | 55.91805 | -3.46617 | 1185 ft | 133 kts | 60° |
| 2026-04-23 17:29 | 55.92283 | -3.45213 | 1002 ft | 132 kts | 60° |
| 2026-04-23 17:29 | 55.92598 | -3.44289 | 879 ft | 130 kts | 59° |
| 2026-04-23 17:29 | 55.93535 | -3.41551 | 511 ft | 128 kts | 61° |
| 2026-04-23 17:30 | 55.93994 | -3.40195 | 311 ft | 128 kts | 62° |
| 2026-04-23 17:30 | 55.94898 | -3.37518 | 113 ft | 106 kts | 58° |
| 2026-04-23 17:30 | 55.95119 | -3.36890 | 112 ft | 18 kts | 57° |
| 2026-04-23 17:31 | 55.95169 | -3.36747 | 114 ft | 15 kts | 58° |
| 2026-04-23 17:31 | 55.95228 | -3.36575 | 112 ft | 16 kts | 59° |
| 2026-04-23 17:31 | 55.95254 | -3.36490 | 112 ft | 8 kts | 80° |
| 2026-04-23 17:31 | 55.95227 | -3.36387 | 112 ft | 11 kts | 139° |
| 2026-04-23 17:32 | 55.95200 | -3.36358 | 112 ft | 0 kts | 152° |
| 2026-04-23 17:32 | 55.95192 | -3.36349 | 112 ft | 3 kts | 152° |
| 2026-04-23 17:32 | 55.95176 | -3.36334 | 112 ft | 0 kts | 151° |
| 2026-04-23 17:33 | 55.95166 | -3.36325 | 112 ft | 5 kts | 152° |
| 2026-04-23 17:33 | 55.95114 | -3.36345 | 112 ft | 11 kts | 228° |
| 2026-04-23 17:33 | 55.95041 | -3.36387 | 111 ft | 14 kts | 168° |
| 2026-04-23 17:34 | 55.95009 | -3.36415 | 112 ft | 2 kts | 234° |
| 2026-04-23 17:34 | 55.94996 | -3.36453 | 112 ft | 4 kts | 240° |
| 2026-04-23 17:34 | 55.94957 | -3.36479 | 112 ft | 6 kts | 143° |
| 2026-04-23 17:35 | 55.94937 | -3.36450 | 111 ft | 3 kts | 147° |
| 2026-04-23 17:35 | 55.94921 | -3.36431 | 112 ft | 2 kts | 149° |
| 2026-04-23 17:35 | 55.94919 | -3.36429 | 112 ft | 0 kts | 149° |